createdAt,value
2023-01-09T00:02:11.726Z,-16.41
2023-01-09T00:05:16.872Z,-16.54
2023-01-09T00:08:20.039Z,-16.77
2023-01-09T00:11:23.691Z,-16.74
2023-01-09T00:14:26.983Z,-16.56
2023-01-09T00:17:30.059Z,-16.45
2023-01-09T00:20:33.342Z,-16.34
2023-01-09T00:23:37.441Z,-16.25
2023-01-09T00:26:41.197Z,-16.24
2023-01-09T00:29:50.199Z,-16.30
2023-01-09T00:32:56.101Z,-16.30
2023-01-09T00:35:59.325Z,-16.34
2023-01-09T00:39:02.872Z,-16.33
2023-01-09T00:42:07.712Z,-16.31
2023-01-09T00:45:15.428Z,-16.29
2023-01-09T00:48:27.200Z,-16.30
2023-01-09T00:51:30.476Z,-16.49
2023-01-09T00:54:33.815Z,-16.54
2023-01-09T00:57:37.122Z,-16.47
2023-01-09T01:00:40.280Z,-16.48
2023-01-09T01:03:43.374Z,-16.43
2023-01-09T01:07:04.840Z,-16.24
2023-01-09T01:10:11.246Z,-16.07
2023-01-09T01:13:15.004Z,-15.95
2023-01-09T01:16:19.103Z,-15.87
2023-01-09T01:19:22.779Z,-15.75
2023-01-09T01:22:25.900Z,-15.75
2023-01-09T01:25:29.248Z,-15.82
2023-01-09T01:28:32.449Z,-15.83
2023-01-09T01:31:35.584Z,-15.82
2023-01-09T01:34:38.743Z,-15.85
2023-01-09T01:37:42.104Z,-15.92
2023-01-09T01:40:45.162Z,-15.96
2023-01-09T01:43:56.886Z,-15.94
2023-01-09T01:47:00.124Z,-15.90
2023-01-09T01:50:10.988Z,-15.81
2023-01-09T01:53:29.875Z,-15.71
2023-01-09T01:56:45.664Z,-15.79
2023-01-09T01:59:53.919Z,-15.95
2023-01-09T02:02:57.082Z,-15.96
2023-01-09T02:06:00.533Z,-15.78
2023-01-09T02:09:06.297Z,-15.69
2023-01-09T02:12:35.390Z,-15.86
2023-01-09T02:16:02.746Z,-15.74
2023-01-09T02:19:38.841Z,-15.67
2023-01-09T02:23:06.794Z,-15.29
2023-01-09T02:26:31.003Z,-14.92
2023-01-09T02:29:37.280Z,-14.68
2023-01-09T02:32:51.574Z,-14.55
2023-01-09T02:36:17.261Z,-14.47
2023-01-09T02:39:31.907Z,-14.35
2023-01-09T02:42:36.990Z,-14.27
2023-01-09T02:45:40.248Z,-14.15
2023-01-09T02:48:45.398Z,-14.01
2023-01-09T02:52:04.752Z,-13.84
2023-01-09T02:55:07.938Z,-13.93
2023-01-09T02:58:13.538Z,-14.24
2023-01-09T03:01:19.785Z,-14.41
2023-01-09T03:04:39.024Z,-14.47
2023-01-09T03:07:48.982Z,-14.39
2023-01-09T03:11:02.725Z,-14.18
2023-01-09T03:14:13.262Z,-13.91
2023-01-09T03:17:26.483Z,-13.45
2023-01-09T03:20:32.136Z,-13.21
2023-01-09T03:23:59.765Z,-12.85
2023-01-09T03:27:03.262Z,-12.61
2023-01-09T03:30:07.204Z,-12.44
2023-01-09T03:33:11.045Z,-12.35
2023-01-09T03:36:15.382Z,-12.30
2023-01-09T03:39:18.195Z,-12.20
2023-01-09T03:42:21.255Z,-12.15
2023-01-09T03:45:24.402Z,-12.09
2023-01-09T03:48:28.088Z,-12.03
2023-01-09T03:51:31.263Z,-11.96
2023-01-09T03:54:34.320Z,-11.91
2023-01-09T03:57:37.517Z,-11.74
2023-01-09T04:00:41.288Z,-11.58
2023-01-09T04:03:44.591Z,-11.53
2023-01-09T04:06:47.704Z,-11.47
2023-01-09T04:09:50.992Z,-11.47
2023-01-09T04:12:54.176Z,-11.42
2023-01-09T04:15:57.337Z,-11.39
2023-01-09T04:19:00.511Z,-11.31
2023-01-09T04:22:03.563Z,-11.23
2023-01-09T04:25:07.236Z,-11.09
2023-01-09T04:28:10.473Z,-10.92
2023-01-09T04:31:13.563Z,-10.85
2023-01-09T04:34:16.676Z,-10.81
2023-01-09T04:37:19.849Z,-10.76
2023-01-09T04:40:23.005Z,-10.66
2023-01-09T04:43:26.399Z,-10.44
2023-01-09T04:46:29.549Z,-10.01
2023-01-09T04:49:32.691Z,-9.80
2023-01-09T04:52:37.579Z,-9.91
2023-01-09T04:55:44.854Z,-10.00
2023-01-09T04:58:48.248Z,-10.08
2023-01-09T05:01:53.602Z,-10.05
2023-01-09T05:04:56.883Z,-10.00
2023-01-09T05:08:00.252Z,-9.97
2023-01-09T05:11:03.478Z,-9.92
2023-01-09T05:14:06.695Z,-9.86
2023-01-09T05:17:09.880Z,-9.83
2023-01-09T05:20:13.197Z,-9.74
2023-01-09T05:23:16.373Z,-9.60
2023-01-09T05:26:24.604Z,-9.45
2023-01-09T05:29:27.883Z,-9.32
2023-01-09T05:32:31.008Z,-9.16
2023-01-09T05:35:34.254Z,-8.98
2023-01-09T05:38:37.654Z,-8.81
2023-01-09T05:41:40.683Z,-8.71
2023-01-09T05:44:43.739Z,-8.78
2023-01-09T05:47:47.178Z,-8.83
2023-01-09T05:50:50.423Z,-8.84
2023-01-09T05:53:53.540Z,-8.87
2023-01-09T05:56:56.680Z,-8.90
2023-01-09T05:59:59.818Z,-8.90
2023-01-09T06:03:03.037Z,-8.85
2023-01-09T06:06:06.485Z,-8.79
2023-01-09T06:09:09.738Z,-8.67
2023-01-09T06:12:12.898Z,-8.61
2023-01-09T06:15:16.220Z,-8.51
2023-01-09T06:18:19.538Z,-8.36
2023-01-09T06:21:22.816Z,-8.35
2023-01-09T06:24:26.082Z,-8.43
2023-01-09T06:27:29.265Z,-8.51
2023-01-09T06:30:32.442Z,-8.55
2023-01-09T06:33:35.655Z,-8.59
2023-01-09T06:36:38.902Z,-8.59
2023-01-09T06:39:41.975Z,-8.57
2023-01-09T06:42:46.512Z,-8.55
2023-01-09T06:45:49.914Z,-8.58
2023-01-09T06:48:54.638Z,-8.60
2023-01-09T06:51:57.799Z,-8.62
2023-01-09T06:55:00.775Z,-8.70
2023-01-09T06:58:03.876Z,-8.72
2023-01-09T07:01:07.136Z,-8.72
2023-01-09T07:04:13.467Z,-8.92
2023-01-09T07:07:16.874Z,-8.95
2023-01-09T07:10:20.024Z,-8.94
2023-01-09T07:13:23.040Z,-8.84
2023-01-09T07:16:26.293Z,-8.78
2023-01-09T07:19:29.470Z,-8.88
2023-01-09T07:22:32.567Z,-8.92
2023-01-09T07:25:35.676Z,-8.91
2023-01-09T07:28:38.803Z,-8.90
2023-01-09T07:31:42.057Z,-8.87
2023-01-09T07:34:45.365Z,-8.88
2023-01-09T07:37:48.555Z,-8.95
2023-01-09T07:40:51.795Z,-9.02
2023-01-09T07:43:54.948Z,-9.21
2023-01-09T07:46:58.157Z,-9.36
2023-01-09T07:50:01.249Z,-9.50
2023-01-09T07:53:04.354Z,-9.48
2023-01-09T07:56:07.859Z,-9.46
2023-01-09T07:59:11.056Z,-9.48
2023-01-09T08:02:14.381Z,-9.43
2023-01-09T08:05:17.524Z,-9.47
2023-01-09T08:08:20.681Z,-9.71
2023-01-09T08:11:23.860Z,-9.94
2023-01-09T08:14:26.996Z,-10.16
2023-01-09T08:17:30.087Z,-10.19
2023-01-09T08:20:33.527Z,-10.10
2023-01-09T08:23:36.661Z,-10.11
2023-01-09T08:26:39.783Z,-10.30
2023-01-09T08:29:42.827Z,-10.38
2023-01-09T08:32:50.950Z,-10.46
2023-01-09T08:35:56.557Z,-10.58
2023-01-09T08:38:59.729Z,-10.52
2023-01-09T08:42:21.152Z,-10.39
2023-01-09T08:45:42.452Z,-10.28
2023-01-09T08:48:45.635Z,-10.30
2023-01-09T08:51:48.743Z,-10.36
2023-01-09T08:54:51.999Z,-10.39
2023-01-09T08:57:55.898Z,-10.49
2023-01-09T09:01:01.928Z,-10.55
2023-01-09T09:04:06.061Z,-10.56
2023-01-09T09:07:09.224Z,-10.57
2023-01-09T09:10:12.506Z,-10.69
2023-01-09T09:13:15.821Z,-10.83
2023-01-09T09:16:19.053Z,-10.90
2023-01-09T09:19:22.368Z,-10.90
2023-01-09T09:22:25.456Z,-10.80
2023-01-09T09:25:29.107Z,-10.74
2023-01-09T09:28:32.743Z,-10.82
2023-01-09T09:31:39.160Z,-10.84
2023-01-09T09:34:42.768Z,-10.81
2023-01-09T09:37:58.325Z,-10.74
2023-01-09T09:41:51.251Z,-10.64
2023-01-09T09:45:17.760Z,-10.60
2023-01-09T09:48:29.861Z,-10.64
2023-01-09T09:51:40.745Z,-10.67
2023-01-09T09:54:51.226Z,-10.70
2023-01-09T09:57:55.387Z,-10.87
2023-01-09T10:01:00.944Z,-10.99
2023-01-09T10:04:11.105Z,-11.02
2023-01-09T10:07:42.393Z,-11.15
2023-01-09T10:10:53.459Z,-11.19
2023-01-09T10:14:08.154Z,-11.18
2023-01-09T10:18:08.601Z,-11.18
2023-01-09T10:21:46.675Z,-11.22
2023-01-09T10:25:30.065Z,-11.16
2023-01-09T10:29:00.777Z,-11.12
2023-01-09T10:32:21.107Z,-11.17
2023-01-09T10:35:49.237Z,-11.44
2023-01-09T10:38:56.371Z,-11.58
2023-01-09T10:42:11.986Z,-11.48
2023-01-09T10:45:47.787Z,-11.34
2023-01-09T10:49:20.451Z,-11.27
2023-01-09T10:52:34.235Z,-11.34
2023-01-09T10:55:59.340Z,-11.36
2023-01-09T10:59:03.980Z,-11.36
2023-01-09T11:02:29.464Z,-11.31
2023-01-09T11:05:42.517Z,-11.36
2023-01-09T11:08:51.991Z,-11.68
2023-01-09T11:11:56.018Z,-12.05
2023-01-09T11:15:21.982Z,-12.11
2023-01-09T11:18:31.160Z,-11.98
2023-01-09T11:21:43.172Z,-11.83
2023-01-09T11:25:08.502Z,-11.85
2023-01-09T11:28:12.096Z,-11.76
2023-01-09T11:31:29.324Z,-11.60
2023-01-09T11:34:36.128Z,-11.50
2023-01-09T11:37:40.895Z,-11.59
2023-01-09T11:40:57.055Z,-11.64
2023-01-09T11:44:04.450Z,-11.63
2023-01-09T11:47:27.652Z,-11.50
2023-01-09T11:50:33.655Z,-11.42
2023-01-09T11:53:54.227Z,-11.47
2023-01-09T11:56:58.338Z,-11.48
2023-01-09T12:00:09.122Z,-11.34
2023-01-09T12:03:48.391Z,-11.16
2023-01-09T12:07:26.610Z,-11.19
2023-01-09T12:10:39.181Z,-11.32
2023-01-09T12:14:16.994Z,-11.34
2023-01-09T12:17:26.665Z,-11.59
2023-01-09T12:20:52.253Z,-11.49
2023-01-09T12:24:32.960Z,-11.41
2023-01-09T12:28:16.364Z,-11.28
2023-01-09T12:31:25.767Z,-11.21
2023-01-09T12:34:45.488Z,-11.19
2023-01-09T12:38:07.397Z,-11.31
2023-01-09T12:41:38.932Z,-11.62
2023-01-09T12:44:52.237Z,-11.82
2023-01-09T12:48:10.250Z,-12.00
2023-01-09T12:51:42.038Z,-12.16
2023-01-09T12:54:54.874Z,-12.21
2023-01-09T12:58:06.458Z,-12.09
2023-01-09T13:01:28.083Z,-11.94
2023-01-09T13:04:42.180Z,-11.84
2023-01-09T13:08:13.966Z,-11.75
2023-01-09T13:11:44.960Z,-11.67
2023-01-09T13:14:53.441Z,-11.66
2023-01-09T13:18:25.465Z,-11.58
2023-01-09T13:21:34.612Z,-11.69
2023-01-09T13:24:53.112Z,-11.72
2023-01-09T13:28:02.973Z,-11.72
2023-01-09T13:31:21.412Z,-11.79
2023-01-09T13:34:30.256Z,-11.88
2023-01-09T13:37:36.169Z,-11.91
2023-01-09T13:40:39.323Z,-12.04
2023-01-09T13:43:55.551Z,-12.12
2023-01-09T13:47:02.618Z,-12.29
2023-01-09T13:50:09.793Z,-12.50
2023-01-09T13:53:41.379Z,-12.52
2023-01-09T13:57:19.585Z,-12.77
2023-01-09T14:00:22.885Z,-12.90
2023-01-09T14:03:34.802Z,-12.88
2023-01-09T14:06:38.104Z,-12.82
2023-01-09T14:09:48.545Z,-12.87
2023-01-09T14:12:55.522Z,-12.94
2023-01-09T14:16:24.160Z,-13.01
2023-01-09T14:19:35.773Z,-13.04
2023-01-09T14:22:50.295Z,-12.98
2023-01-09T14:26:03.569Z,-13.08
2023-01-09T14:29:44.217Z,-13.08
2023-01-09T14:33:00.226Z,-13.06
2023-01-09T14:36:14.263Z,-12.97
2023-01-09T14:39:19.512Z,-12.95
2023-01-09T14:42:30.157Z,-12.90
2023-01-09T14:45:36.289Z,-12.83
2023-01-09T14:48:50.993Z,-12.78
2023-01-09T14:51:54.643Z,-12.77
2023-01-09T14:55:03.327Z,-12.80
2023-01-09T14:58:36.838Z,-12.83
2023-01-09T15:01:45.271Z,-12.94
2023-01-09T15:04:48.500Z,-13.12
2023-01-09T15:08:04.205Z,-13.21
2023-01-09T15:11:07.533Z,-13.21
2023-01-09T15:14:26.207Z,-13.20
2023-01-09T15:17:37.557Z,-13.38
2023-01-09T15:20:40.966Z,-13.44
2023-01-09T15:23:44.536Z,-13.35
2023-01-09T15:26:54.423Z,-13.26
2023-01-09T15:30:15.374Z,-13.22
2023-01-09T15:33:19.838Z,-13.37
2023-01-09T15:36:25.132Z,-13.55
2023-01-09T15:39:40.492Z,-13.69
2023-01-09T15:43:01.767Z,-13.78
2023-01-09T15:46:05.161Z,-14.00
2023-01-09T15:49:13.733Z,-14.11
2023-01-09T15:52:18.990Z,-14.04
2023-01-09T15:55:39.196Z,-13.85
2023-01-09T15:58:50.464Z,-13.77
2023-01-09T16:02:20.722Z,-13.75
2023-01-09T16:05:33.744Z,-13.63
2023-01-09T16:08:54.438Z,-13.59
2023-01-09T16:12:00.986Z,-13.53
2023-01-09T16:15:04.349Z,-13.45
2023-01-09T16:18:32.609Z,-13.37
2023-01-09T16:21:38.815Z,-13.39
2023-01-09T16:24:42.996Z,-13.40
2023-01-09T16:27:45.943Z,-13.35
2023-01-09T16:31:01.603Z,-13.38
2023-01-09T16:34:07.676Z,-13.39
2023-01-09T16:37:13.855Z,-13.40
2023-01-09T16:40:23.229Z,-13.43
2023-01-09T16:43:26.395Z,-13.42
2023-01-09T16:46:29.879Z,-13.58
2023-01-09T16:49:34.883Z,-13.78
2023-01-09T16:52:38.116Z,-13.82
2023-01-09T16:55:41.503Z,-13.76
2023-01-09T16:58:45.108Z,-13.65
2023-01-09T17:01:51.667Z,-13.64
2023-01-09T17:04:59.803Z,-13.64
2023-01-09T17:08:02.916Z,-13.65
2023-01-09T17:11:06.286Z,-13.61
2023-01-09T17:14:12.501Z,-13.67
2023-01-09T17:17:17.240Z,-13.78
2023-01-09T17:20:23.438Z,-13.72
2023-01-09T17:23:26.592Z,-13.62
2023-01-09T17:26:47.906Z,-13.63
2023-01-09T17:29:51.204Z,-13.63
2023-01-09T17:32:54.315Z,-13.59
2023-01-09T17:35:58.057Z,-13.58
2023-01-09T17:39:02.492Z,-13.54
2023-01-09T17:42:05.690Z,-13.62
2023-01-09T17:45:09.148Z,-13.66
2023-01-09T17:48:20.371Z,-13.69
2023-01-09T17:51:23.667Z,-13.79
2023-01-09T17:54:26.824Z,-13.86
2023-01-09T17:57:29.946Z,-13.87
2023-01-09T18:00:37.375Z,-14.05
2023-01-09T18:03:41.630Z,-14.22
2023-01-09T18:06:44.723Z,-14.24
2023-01-09T18:09:48.287Z,-14.16
2023-01-09T18:12:53.079Z,-14.06
2023-01-09T18:15:56.118Z,-13.96
2023-01-09T18:18:59.729Z,-13.91
2023-01-09T18:22:04.472Z,-13.89
2023-01-09T18:25:08.846Z,-13.99
2023-01-09T18:28:15.959Z,-14.03
2023-01-09T18:31:23.452Z,-14.03
2023-01-09T18:34:26.815Z,-14.00
2023-01-09T18:37:30.032Z,-13.99
2023-01-09T18:40:33.917Z,-13.98
2023-01-09T18:43:37.073Z,-13.97
2023-01-09T18:46:41.502Z,-14.01
2023-01-09T18:49:44.682Z,-14.01
2023-01-09T18:52:47.960Z,-14.12
2023-01-09T18:55:51.101Z,-14.10
2023-01-09T18:58:58.545Z,-14.07
2023-01-09T19:02:02.345Z,-14.07
2023-01-09T19:05:05.926Z,-14.00
2023-01-09T19:08:09.043Z,-13.89
2023-01-09T19:11:12.885Z,-13.81
2023-01-09T19:14:16.042Z,-13.80
2023-01-09T19:17:19.382Z,-14.00
2023-01-09T19:20:22.611Z,-14.21
2023-01-09T19:23:25.738Z,-14.29
2023-01-09T19:26:31.541Z,-14.17
2023-01-09T19:29:36.601Z,-14.08
2023-01-09T19:32:40.865Z,-14.06
2023-01-09T19:35:49.430Z,-14.15
2023-01-09T19:39:00.440Z,-14.12
2023-01-09T19:42:03.896Z,-14.03
2023-01-09T19:45:07.832Z,-14.01
2023-01-09T19:48:10.900Z,-13.97
2023-01-09T19:51:16.537Z,-13.90
2023-01-09T19:54:19.733Z,-13.86
2023-01-09T19:57:23.073Z,-13.86
2023-01-09T20:00:26.115Z,-13.92
2023-01-09T20:03:29.230Z,-14.00
2023-01-09T20:06:32.677Z,-14.04
2023-01-09T20:09:35.805Z,-14.02
2023-01-09T20:12:39.100Z,-13.73
2023-01-09T20:15:43.361Z,-13.36
2023-01-09T20:18:46.924Z,-12.84
2023-01-09T20:21:50.090Z,-12.32
2023-01-09T20:24:53.289Z,-12.18
2023-01-09T20:27:58.751Z,-12.21
2023-01-09T20:31:03.644Z,-12.42
2023-01-09T20:34:06.858Z,-12.72
2023-01-09T20:37:10.455Z,-13.00
2023-01-09T20:40:13.695Z,-13.33
2023-01-09T20:43:17.176Z,-13.59
2023-01-09T20:46:21.362Z,-13.79
2023-01-09T20:49:24.602Z,-13.90
2023-01-09T20:52:27.783Z,-13.92
2023-01-09T20:55:31.194Z,-13.93
2023-01-09T20:58:35.217Z,-14.03
2023-01-09T21:01:39.531Z,-14.08
2023-01-09T21:04:42.378Z,-14.03
2023-01-09T21:07:45.446Z,-14.02
2023-01-09T21:10:48.757Z,-14.05
2023-01-09T21:13:52.116Z,-14.15
2023-01-09T21:16:55.606Z,-14.07
2023-01-09T21:19:58.682Z,-14.03
2023-01-09T21:23:01.892Z,-13.98
2023-01-09T21:26:13.935Z,-13.87
2023-01-09T21:29:17.103Z,-13.69
2023-01-09T21:32:20.451Z,-13.52
2023-01-09T21:35:23.460Z,-13.34
2023-01-09T21:38:27.775Z,-13.15
2023-01-09T21:41:49.332Z,-13.01
2023-01-09T21:45:10.924Z,-12.85
2023-01-09T21:48:14.614Z,-12.73
2023-01-09T21:51:18.465Z,-12.61
2023-01-09T21:54:23.699Z,-12.41
2023-01-09T21:57:26.963Z,-12.23
2023-01-09T22:00:31.104Z,-12.07
2023-01-09T22:03:34.341Z,-12.21
2023-01-09T22:06:37.393Z,-12.50
2023-01-09T22:09:40.492Z,-12.81
2023-01-09T22:13:03.475Z,-13.13
2023-01-09T22:16:08.360Z,-13.39
2023-01-09T22:19:18.013Z,-13.60
2023-01-09T22:22:21.183Z,-13.62
2023-01-09T22:25:25.115Z,-13.61
2023-01-09T22:28:28.373Z,-13.65
2023-01-09T22:31:33.481Z,-13.77
2023-01-09T22:34:36.638Z,-13.90
2023-01-09T22:37:39.853Z,-13.93
2023-01-09T22:40:43.829Z,-13.83
2023-01-09T22:43:47.052Z,-13.70
2023-01-09T22:46:50.199Z,-13.67
2023-01-09T22:49:53.881Z,-13.75
2023-01-09T22:52:57.164Z,-13.79
2023-01-09T22:56:04.172Z,-13.81
2023-01-09T22:59:08.583Z,-13.87
2023-01-09T23:02:11.629Z,-13.85
2023-01-09T23:05:15.305Z,-13.90
2023-01-09T23:08:18.388Z,-14.07
2023-01-09T23:11:47.540Z,-14.32
2023-01-09T23:14:50.713Z,-14.56
2023-01-09T23:17:53.768Z,-14.47
2023-01-09T23:20:59.383Z,-14.25
2023-01-09T23:24:02.834Z,-14.16
2023-01-09T23:27:06.332Z,-14.01
2023-01-09T23:30:10.870Z,-13.87
2023-01-09T23:33:14.619Z,-13.80
2023-01-09T23:36:17.748Z,-13.66
2023-01-09T23:39:21.077Z,-13.46
2023-01-09T23:42:42.688Z,-13.20
2023-01-09T23:45:46.890Z,-13.06
2023-01-09T23:48:49.869Z,-13.01
2023-01-09T23:51:53.008Z,-13.14
2023-01-09T23:54:57.319Z,-13.27
2023-01-09T23:58:00.449Z,-13.22
